^^
Saratoga-Weather Station Historical Data
Daily Summary for May 6, 2020 Units:  English    Metric   Both
Daily Weekly Monthly Yearly Custom
  High: Low: Average:
Temperature: 57.7 °F 50.7 °F 53.8 °F
Dew Point: 53.6 °F 49.1 °F 51.1 °F
Humidity: 95% 83% 91%
Wind Speed: 14.1mph 0mph 3.1mph
Wind Gust: 18mph - -
Wind- - SW
Pressure: 29.7 in 29.6 in -
Precipitation: 0.47 in    
Historical Graphs
 
 
Tabular Data for May 6, 2020
Time Temperature Dew Point Pressure Wind Wind Speed Wind Gust Humidity Rainfall Rate (Hourly) solar
00:04 54 °F 52.3 °F 29.6 in WNW 4 mph 8 mph 94% 0.08 in 0 W/m2
00:09 54 °F 52.3 °F 29.6 in North 0.9 mph 11 mph 94% 0.08 in 0 W/m2
00:14 54 °F 52.3 °F 29.6 in North 2 mph 7 mph 94% 0.07 in 0 W/m2
00:19 54 °F 52.3 °F 29.6 in WNW 2 mph 11 mph 94% 0.07 in 0 W/m2
00:24 54 °F 52.3 °F 29.6 in WNW 2 mph 6 mph 94% 0.07 in 0 W/m2
00:29 53.8 °F 52.2 °F 29.6 in NW 2 mph 11 mph 94% 0.07 in 0 W/m2
00:34 53.8 °F 52.2 °F 29.7 in West 2 mph 7 mph 94% 0.07 in 0 W/m2
00:39 53.8 °F 52.3 °F 29.7 in WNW 2 mph 6 mph 95% 0.07 in 0 W/m2
00:44 53.8 °F 52.3 °F 29.7 in WNW 2 mph 9 mph 95% 0.07 in 0 W/m2
00:49 53.8 °F 52.2 °F 29.7 in NNW 2.9 mph 8 mph 94% 0.06 in 0 W/m2
00:54 53.8 °F 52.2 °F 29.7 in NW 2 mph 10 mph 94% 0.05 in 0 W/m2
00:59 53.8 °F 52.2 °F 29.7 in NW 2 mph 16 mph 94% 0.06 in 0 W/m2
01:04 53.8 °F 52.2 °F 29.7 in WSW 2.9 mph 11 mph 94% 0.06 in 0 W/m2
01:09 53.6 °F 52 °F 29.7 in West 4 mph 16 mph 94% 0.06 in 0 W/m2
01:14 53.4 °F 51.8 °F 29.7 in NE 0.9 mph 10 mph 94% 0.06 in 0 W/m2
01:19 53.4 °F 51.8 °F 29.7 in West 2 mph 13 mph 94% 0.06 in 0 W/m2
01:24 53.6 °F 52 °F 29.7 in WSW 8.9 mph 10 mph 94% 0.06 in 0 W/m2
01:29 53.6 °F 52 °F 29.7 in WSW 8.1 mph 13 mph 94% 0.05 in 0 W/m2
01:34 53.6 °F 52 °F 29.7 in NW 2 mph 7 mph 94% 0.05 in 0 W/m2
01:39 53.6 °F 51.6 °F 29.7 in NNE 0.9 mph 16 mph 93% 0.05 in 0 W/m2
01:44 53.6 °F 51.6 °F 29.7 in NW 2.9 mph 8 mph 93% 0.04 in 0 W/m2
01:49 53.6 °F 51.6 °F 29.7 in West 6 mph 8 mph 93% 0.04 in 0 W/m2
01:54 53.4 °F 51.4 °F 29.7 in WNW 4 mph 12 mph 93% 0.04 in 0 W/m2
01:59 53.4 °F 51.4 °F 29.7 in West 4 mph 12 mph 93% 0.03 in 0 W/m2
02:04 53.4 °F 51.4 °F 29.7 in West 2 mph 12 mph 93% 0.02 in 0 W/m2
02:09 53.4 °F 51.4 °F 29.7 in West 10.1 mph 10 mph 93% 0.02 in 0 W/m2
02:14 53.4 °F 51.4 °F 29.7 in WNW 12.1 mph 13 mph 93% 0.02 in 0 W/m2
02:19 53.4 °F 51.1 °F 29.7 in West 2.9 mph 7 mph 92% 0.02 in 0 W/m2
02:24 53.2 °F 50.9 °F 29.7 in WSW 8.1 mph 12 mph 92% 0.01 in 0 W/m2
02:29 53.2 °F 50.9 °F 29.7 in NNW 0.9 mph 5 mph 92% 0.01 in 0 W/m2
02:34 53.2 °F 50.9 °F 29.7 in WNW 2.9 mph 12 mph 92% 0 in 0 W/m2
02:39 53.1 °F 50.7 °F 29.7 in WNW 6.9 mph 9 mph 92% 0 in 0 W/m2
02:44 53.1 °F 50.7 °F 29.7 in West 2 mph 8 mph 92% 0 in 0 W/m2
02:49 53.1 °F 50.7 °F 29.7 in NE 4 mph 5 mph 92% 0 in 0 W/m2
02:54 52.9 °F 50.5 °F 29.7 in NNW 6 mph 13 mph 92% 0 in 0 W/m2
02:59 52.7 °F 50.4 °F 29.7 in West 2 mph 8 mph 92% 0 in 0 W/m2
03:04 52.5 °F 50.2 °F 29.7 in NW 2.9 mph 9 mph 92% 0 in 0 W/m2
03:09 52.3 °F 50 °F 29.7 in NE 0.9 mph 12 mph 92% 0 in 0 W/m2
03:14 52.3 °F 50 °F 29.7 in NW 11 mph 11 mph 92% 0 in 0 W/m2
03:19 52.3 °F 50 °F 29.7 in WNW 4.9 mph 6 mph 92% 0 in 0 W/m2
03:24 52.3 °F 50 °F 29.7 in Calm   5 mph 92% 0 in 0 W/m2
03:29 52.3 °F 50 °F 29.7 in NW 0.9 mph 4 mph 92% 0 in 0 W/m2
03:34 52.3 °F 50 °F 29.7 in Calm   7 mph 92% 0 in 0 W/m2
03:39 52.3 °F 50 °F 29.7 in WNW 2 mph 5 mph 92% 0 in 0 W/m2
03:44 52.3 °F 50 °F 29.7 in North 2 mph 3 mph 92% 0 in 0 W/m2
03:49 52.3 °F 50 °F 29.7 in NNW 2 mph 4 mph 92% 0 in 0 W/m2
03:54 52.3 °F 50 °F 29.7 in Calm   4 mph 92% 0 in 0 W/m2
03:59 52.3 °F 50 °F 29.7 in WSW 2.9 mph 7 mph 92% 0 in 0 W/m2
04:04 52.3 °F 50 °F 29.7 in WNW 4 mph 7 mph 92% 0 in 0 W/m2
04:09 52.3 °F 49.8 °F 29.7 in SSW 2 mph 5 mph 91% 0 in 0 W/m2
04:14 52.5 °F 50 °F 29.7 in NNW 2.9 mph 6 mph 91% 0 in 0 W/m2
04:19 52.5 °F 50 °F 29.7 in WNW 6 mph 6 mph 91% 0 in 0 W/m2
04:25 52.5 °F 50 °F 29.7 in NNW 2 mph 4 mph 91% 0 in 0 W/m2
04:30 52.5 °F 50 °F 29.7 in ENE 2.9 mph 6 mph 91% 0 in 0 W/m2
04:35 52.5 °F 50 °F 29.7 in ENE 2.9 mph 3 mph 91% 0 in 0 W/m2
04:40 52.3 °F 49.8 °F 29.7 in NNE 0.9 mph 9 mph 91% 0 in 0 W/m2
04:45 52.3 °F 49.8 °F 29.7 in North 2.9 mph 4 mph 91% 0 in 0 W/m2
04:50 52.3 °F 49.8 °F 29.7 in WSW 2.9 mph 6 mph 91% 0 in 0 W/m2
04:55 52.3 °F 49.8 °F 29.7 in West 2.9 mph 9 mph 91% 0 in 0 W/m2
05:00 52.5 °F 50 °F 29.7 in East 4 mph 4 mph 91% 0 in 0 W/m2
05:05 52.3 °F 49.8 °F 29.7 in WNW 2.9 mph 9 mph 91% 0 in 0 W/m2
05:10 52.3 °F 49.8 °F 29.7 in NW 2.9 mph 3 mph 91% 0 in 0 W/m2
05:15 52.3 °F 49.8 °F 29.7 in West 0.9 mph 8 mph 91% 0 in 0 W/m2
05:20 52.3 °F 49.8 °F 29.7 in NNE 2 mph 7 mph 91% 0 in 0 W/m2
05:25 52.3 °F 49.8 °F 29.7 in NE 2 mph 3 mph 91% 0 in 0 W/m2
05:30 52.3 °F 49.8 °F 29.7 in North 0.9 mph 6 mph 91% 0 in 0 W/m2
05:35 52.3 °F 49.8 °F 29.7 in NE 2 mph 4 mph 91% 0 in 0 W/m2
05:40 52.2 °F 49.8 °F 29.7 in ENE 2 mph 3 mph 92% 0 in 0 W/m2
05:45 52.2 °F 49.8 °F 29.7 in NNW 2 mph 3 mph 92% 0 in 0 W/m2
05:50 52.2 °F 49.8 °F 29.7 in SW 2 mph 6 mph 92% 0 in 0 W/m2
05:55 52.2 °F 49.6 °F 29.7 in Calm   5 mph 91% 0 in 0 W/m2
06:00 52.2 °F 49.6 °F 29.7 in NNW 0.9 mph 3 mph 91% 0 in 0 W/m2
06:05 52.2 °F 49.6 °F 29.7 in East 8.1 mph 8 mph 91% 0 in 0 W/m2
06:10 52.2 °F 49.6 °F 29.7 in WSW 0.9 mph 3 mph 91% 0 in 0 W/m2
06:15 52.2 °F 49.6 °F 29.7 in ESE 8 mph 8 mph 91% 0 in 0 W/m2
06:20 52.2 °F 49.6 °F 29.7 in SW 0.9 mph 4 mph 91% 0 in 0 W/m2
06:25 52.2 °F 49.6 °F 29.7 in Calm   3 mph 91% 0 in 0 W/m2
06:30 52.2 °F 49.6 °F 29.7 in ENE 2 mph 3 mph 91% 0 in 0 W/m2
06:35 52.2 °F 49.6 °F 29.7 in NNE 0.9 mph 2 mph 91% 0 in 0 W/m2
06:40 52 °F 49.5 °F 29.7 in ENE 2 mph 3 mph 91% 0 in 0 W/m2
06:45 52 °F 49.5 °F 29.7 in NE 2 mph 3 mph 91% 0 in 0 W/m2
06:50 51.6 °F 49.5 °F 29.7 in Calm   4 mph 92% 0.01 in 0 W/m2
06:55 51.4 °F 49.3 °F 29.7 in Calm   1 mph 92% 0.02 in 0 W/m2
07:00 51.3 °F 49.3 °F 29.7 in NNW 2 mph 3 mph 93% 0.02 in 0 W/m2
07:05 51.1 °F 49.1 °F 29.7 in Calm   4 mph 93% 0.02 in 0 W/m2
07:10 51.1 °F 49.5 °F 29.7 in NNW 0.9 mph 3 mph 94% 0.02 in 0 W/m2
07:15 51.1 °F 49.5 °F 29.7 in ENE 2.9 mph 5 mph 94% 0.02 in 0 W/m2
07:20 51.1 °F 49.5 °F 29.7 in NE 2.9 mph 3 mph 94% 0.02 in 0 W/m2
07:25 51.1 °F 49.5 °F 29.7 in NE 0.9 mph 6 mph 94% 0.02 in 0 W/m2
07:30 50.9 °F 49.3 °F 29.7 in NNE 0.9 mph 3 mph 94% 0.03 in 0 W/m2
07:35 50.9 °F 49.3 °F 29.7 in SE 2 mph 2 mph 94% 0.03 in 0 W/m2
07:40 50.9 °F 49.3 °F 29.7 in North 0.9 mph 3 mph 94% 0.03 in 0 W/m2
07:45 50.9 °F 49.3 °F 29.7 in WSW 2 mph 2 mph 94% 0.04 in 0 W/m2
07:50 50.9 °F 49.5 °F 29.7 in NE 2 mph 2 mph 95% 0.04 in 0 W/m2
07:55 50.9 °F 49.5 °F 29.7 in NE 0.9 mph 3 mph 95% 0.03 in 0 W/m2
08:00 50.9 °F 49.5 °F 29.7 in ENE 2.9 mph 3 mph 95% 0.04 in 0 W/m2
08:05 50.7 °F 49.3 °F 29.7 in NE 2 mph 4 mph 95% 0.04 in 0 W/m2
08:10 50.9 °F 49.5 °F 29.7 in NNW 0.9 mph 4 mph 95% 0.05 in 9 W/m2
08:15 50.9 °F 49.5 °F 29.7 in NW 2.9 mph 5 mph 95% 0.04 in 25 W/m2
08:20 51.1 °F 49.6 °F 29.7 in NNE 2.9 mph 9 mph 95% 0.04 in 21 W/m2
08:25 51.1 °F 49.6 °F 29.7 in NE 2.9 mph 6 mph 95% 0.04 in 25 W/m2
08:30 51.3 °F 49.8 °F 29.7 in NNE 2 mph 9 mph 95% 0.03 in 18 W/m2
08:35 51.3 °F 49.8 °F 29.7 in North 2 mph 3 mph 95% 0.04 in 21 W/m2
08:40 51.4 °F 50 °F 29.6 in North 2.9 mph 5 mph 95% 0.04 in 12 W/m2
08:45 51.4 °F 50 °F 29.6 in ENE 2 mph 3 mph 95% 0.04 in 25 W/m2
08:50 51.4 °F 50 °F 29.6 in NNE 2 mph 3 mph 95% 0.04 in 25 W/m2
08:55 51.4 °F 50 °F 29.6 in NE 4.9 mph 5 mph 95% 0.05 in 39 W/m2
09:00 51.4 °F 50 °F 29.6 in East 0.9 mph 3 mph 95% 0.06 in 19 W/m2
09:05 51.4 °F 50 °F 29.6 in NE 2 mph 5 mph 95% 0.06 in 18 W/m2
09:10 51.6 °F 50.2 °F 29.6 in ENE 0.9 mph 8 mph 95% 0.08 in 26 W/m2
09:15 51.6 °F 50.2 °F 29.6 in NW 2.9 mph 4 mph 95% 0.08 in 32 W/m2
09:20 51.6 °F 50.2 °F 29.6 in East 2 mph 4 mph 95% 0.09 in 26 W/m2
09:25 51.6 °F 50 °F 29.6 in NE 2 mph 3 mph 94% 0.1 in 33 W/m2
09:30 51.8 °F 50.2 °F 29.6 in East 2 mph 6 mph 94% 0.1 in 40 W/m2
09:35 51.8 °F 50.4 °F 29.6 in WNW 2 mph 4 mph 95% 0.09 in 58 W/m2
09:40 52 °F 50.5 °F 29.6 in Calm   3 mph 95% 0.09 in 46 W/m2
09:45 52.2 °F 50.5 °F 29.6 in NE 2 mph 5 mph 94% 0.09 in 49 W/m2
09:51 52.2 °F 50.5 °F 29.6 in ESE 4 mph 7 mph 94% 0.09 in 67 W/m2
09:56 52.2 °F 50.5 °F 29.6 in NE 2.9 mph 4 mph 94% 0.08 in 46 W/m2
10:01 52.2 °F 50.5 °F 29.6 in NW 2 mph 4 mph 94% 0.06 in 65 W/m2
10:06 52.2 °F 50.5 °F 29.6 in ENE 4 mph 8 mph 94% 0.05 in 47 W/m2
10:11 52.2 °F 50.5 °F 29.6 in ENE 4 mph 5 mph 94% 0.04 in 51 W/m2
10:16 52.2 °F 50.5 °F 29.6 in North 2 mph 5 mph 94% 0.05 in 69 W/m2
10:21 52.3 °F 50.9 °F 29.6 in NE 2.9 mph 5 mph 95% 0.06 in 77 W/m2
10:26 52.3 °F 50.9 °F 29.6 in SSW 2.9 mph 9 mph 95% 0.05 in 54 W/m2
10:31 52.3 °F 50.9 °F 29.6 in East 4.9 mph 5 mph 95% 0.06 in 60 W/m2
10:36 52.3 °F 50.9 °F 29.6 in ENE 4 mph 5 mph 95% 0.06 in 83 W/m2
10:41 52.3 °F 50.9 °F 29.6 in East 0.9 mph 10 mph 95% 0.06 in 60 W/m2
10:46 52.3 °F 50.9 °F 29.6 in North 4 mph 10 mph 95% 0.06 in 54 W/m2
10:51 52.5 °F 51.1 °F 29.6 in NNW 2 mph 5 mph 95% 0.06 in 56 W/m2
10:56 52.5 °F 51.1 °F 29.6 in ESE 4 mph 7 mph 95% 0.06 in 53 W/m2
11:01 52.5 °F 51.1 °F 29.6 in WNW 4 mph 8 mph 95% 0.06 in 47 W/m2
11:06 52.7 °F 51.3 °F 29.6 in NNE 0.9 mph 5 mph 95% 0.06 in 53 W/m2
11:11 52.9 °F 51.4 °F 29.6 in North 2 mph 8 mph 95% 0.06 in 47 W/m2
11:16 52.9 °F 51.4 °F 29.6 in NNW 2 mph 3 mph 95% 0.06 in 114 W/m2
11:21 53.1 °F 51.6 °F 29.6 in North 2.9 mph 13 mph 95% 0.04 in 149 W/m2
11:26 53.2 °F 51.8 °F 29.6 in NNW 0.9 mph 3 mph 95% 0.04 in 137 W/m2
11:31 53.2 °F 51.8 °F 29.6 in NE 4.9 mph 13 mph 95% 0.04 in 123 W/m2
11:36 53.4 °F 52 °F 29.6 in West 4 mph 5 mph 95% 0.04 in 84 W/m2
11:41 53.4 °F 52 °F 29.6 in SW 0.9 mph 4 mph 95% 0.04 in 65 W/m2
11:46 53.4 °F 52 °F 29.6 in NE 4 mph 4 mph 95% 0.04 in 56 W/m2
11:51 53.4 °F 52 °F 29.6 in North 2 mph 4 mph 95% 0.03 in 56 W/m2
11:56 53.4 °F 52 °F 29.6 in NW 4 mph 8 mph 95% 0.04 in 62 W/m2
12:01 53.4 °F 52 °F 29.6 in NE 0.9 mph 9 mph 95% 0.04 in 90 W/m2
12:06 53.8 °F 52.3 °F 29.6 in NE 4 mph 4 mph 95% 0.04 in 116 W/m2
12:11 54 °F 52.5 °F 29.6 in WNW 6.9 mph 14 mph 95% 0.04 in 69 W/m2
12:16 54 °F 52.5 °F 29.6 in West 10.1 mph 13 mph 95% 0.09 in 107 W/m2
12:21 54 °F 52.3 °F 29.6 in WNW 4.9 mph 14 mph 94% 0.09 in 171 W/m2
12:26 54.3 °F 52.7 °F 29.6 in SW 4.9 mph 8 mph 94% 0.08 in 185 W/m2
12:31 54.5 °F 52.5 °F 29.6 in SW 0.9 mph 7 mph 93% 0.07 in 260 W/m2
12:36 54.9 °F 52.9 °F 29.6 in WNW 2.9 mph 7 mph 93% 0.07 in 315 W/m2
12:41 55.2 °F 53.2 °F 29.6 in WNW 4.9 mph 10 mph 93% 0.07 in 211 W/m2
12:46 55.6 °F 53.2 °F 29.6 in SW 6.9 mph 11 mph 92% 0.07 in 267 W/m2
12:51 55.8 °F 53.4 °F 29.6 in West 4 mph 6 mph 92% 0.07 in 323 W/m2
12:56 55.9 °F 53.6 °F 29.6 in NW 2.9 mph 5 mph 92% 0.06 in 455 W/m2
13:01 56.1 °F 53.6 °F 29.6 in NNW 4.9 mph 8 mph 91% 0.06 in 185 W/m2
13:06 56.1 °F 53.2 °F 29.6 in North 6 mph 6 mph 90% 0.06 in 376 W/m2
13:11 56.5 °F 53.6 °F 29.6 in NE 4 mph 7 mph 90% 0.06 in 441 W/m2
13:16 56.7 °F 53.4 °F 29.6 in NW 8.1 mph 11 mph 89% 0.01 in 241 W/m2
13:21 56.7 °F 53.4 °F 29.6 in WNW 4 mph 9 mph 89% 0.01 in 199 W/m2
13:26 56.5 °F 53.2 °F 29.6 in WNW 2 mph 9 mph 89% 0.01 in 167 W/m2
13:31 56.7 °F 53.4 °F 29.6 in West 2 mph 4 mph 89% 0.01 in 156 W/m2
13:36 56.7 °F 53.4 °F 29.6 in Calm   10 mph 89% 0 in 105 W/m2
13:41 56.5 °F 53.2 °F 29.6 in NNW 2.9 mph 5 mph 89% 0 in 134 W/m2
13:46 56.1 °F 53.2 °F 29.6 in NW 2 mph 10 mph 90% 0 in 116 W/m2
13:51 56.1 °F 53.2 °F 29.6 in WNW 2 mph 5 mph 90% 0 in 251 W/m2
13:56 56.1 °F 53.6 °F 29.6 in NW 2 mph 9 mph 91% 0.01 in 304 W/m2
14:01 56.1 °F 53.2 °F 29.6 in SW 2 mph 14 mph 90% 0.01 in 265 W/m2
14:06 56.5 °F 53.6 °F 29.6 in North 2 mph 7 mph 90% 0.01 in 237 W/m2
14:11 56.5 °F 53.6 °F 29.6 in West 2.9 mph 4 mph 90% 0.01 in 227 W/m2
14:16 56.5 °F 53.6 °F 29.6 in WNW 14.1 mph 14 mph 90% 0.01 in 206 W/m2
14:21 56.5 °F 53.2 °F 29.6 in WNW 13 mph 18 mph 89% 0.01 in 155 W/m2
14:26 56.7 °F 53.1 °F 29.6 in West 2 mph 10 mph 88% 0.01 in 155 W/m2
14:31 56.8 °F 53.2 °F 29.6 in WNW 2.9 mph 8 mph 88% 0.01 in 127 W/m2
14:36 56.7 °F 53.1 °F 29.6 in West 8.1 mph 11 mph 88% 0.01 in 153 W/m2
14:41 56.7 °F 53.1 °F 29.6 in NW 2.9 mph 6 mph 88% 0.01 in 188 W/m2
14:46 56.7 °F 53.1 °F 29.6 in West 6.9 mph 7 mph 88% 0.01 in 223 W/m2
14:51 56.7 °F 53.4 °F 29.6 in WNW 8.1 mph 11 mph 89% 0.01 in 190 W/m2
14:56 56.8 °F 53.2 °F 29.6 in West 4 mph 8 mph 88% 0 in 178 W/m2
15:01 56.8 °F 53.1 °F 29.6 in WNW 6.9 mph 9 mph 87% 0 in 162 W/m2
15:06 56.8 °F 53.1 °F 29.6 in West 2 mph 9 mph 87% 0 in 199 W/m2
15:11 56.8 °F 52.7 °F 29.6 in NW 4.9 mph 12 mph 86% 0 in 213 W/m2
15:16 56.7 °F 52.9 °F 29.6 in SSW 2 mph 8 mph 87% 0 in 251 W/m2
15:21 56.7 °F 52.5 °F 29.6 in WNW 2 mph 9 mph 86% 0 in 246 W/m2
15:26 56.8 °F 52.3 °F 29.6 in NW 8.1 mph 9 mph 85% 0 in 589 W/m2
15:31 57.4 °F 52.9 °F 29.6 in NNW 4.9 mph 6 mph 85% 0 in 538 W/m2
15:36 57.6 °F 52.7 °F 29.6 in WSW 2 mph 8 mph 84% 0 in 515 W/m2
15:41 57.7 °F 52.9 °F 29.6 in WNW 8.1 mph 10 mph 84% 0 in 490 W/m2
15:46 57.7 °F 52.9 °F 29.6 in NW 6.9 mph 7 mph 84% 0 in 422 W/m2
15:51 57.6 °F 52.7 °F 29.6 in NNW 8.1 mph 8 mph 84% 0 in 236 W/m2
15:56 57.6 °F 52.7 °F 29.6 in WNW 2 mph 6 mph 84% 0 in 98 W/m2
16:01 57.4 °F 52.3 °F 29.6 in West 2 mph 8 mph 83% 0 in 105 W/m2
16:06 57 °F 52.2 °F 29.6 in NW 2.9 mph 12 mph 84% 0 in 95 W/m2
16:11 56.8 °F 52.3 °F 29.6 in SW 4 mph 7 mph 85% 0 in 125 W/m2
16:16 56.5 °F 52.7 °F 29.6 in NW 4.9 mph 12 mph 87% 0.01 in 116 W/m2
16:21 55.9 °F 52.5 °F 29.6 in NW 4 mph 6 mph 88% 0.01 in 120 W/m2
16:26 55.8 °F 52.5 °F 29.6 in East 0.9 mph 12 mph 89% 0.01 in 130 W/m2
16:31 55.8 °F 52.9 °F 29.6 in NNW 0.9 mph 3 mph 90% 0.01 in 125 W/m2
16:36 55.8 °F 52.9 °F 29.6 in NNW 2 mph 8 mph 90% 0.01 in 244 W/m2
16:41 55.9 °F 53.1 °F 29.6 in Calm   6 mph 90% 0.01 in 142 W/m2
16:46 55.9 °F 53.1 °F 29.6 in NW 0.9 mph 3 mph 90% 0.01 in 97 W/m2
16:51 55.9 °F 52.7 °F 29.6 in NE 2 mph 9 mph 89% 0.01 in 83 W/m2
16:56 56.1 °F 52.9 °F 29.6 in NW 2 mph 5 mph 89% 0.01 in 83 W/m2
17:01 56.1 °F 52.7 °F 29.6 in NNE 2 mph 9 mph 88% 0.01 in 67 W/m2
17:07 56.3 °F 52.5 °F 29.6 in SSW 2 mph 7 mph 87% 0.01 in 114 W/m2
17:12 56.5 °F 52.7 °F 29.6 in NW 2.9 mph 8 mph 87% 0.01 in 86 W/m2
17:17 56.5 °F 52.3 °F 29.6 in WSW 4 mph 10 mph 86% 0 in 144 W/m2
17:22 56.7 °F 52.2 °F 29.6 in NW 8.1 mph 15 mph 85% 0 in 105 W/m2
17:27 56.7 °F 52.5 °F 29.6 in WNW 2 mph 12 mph 86% 0 in 39 W/m2
17:32 56.7 °F 52.5 °F 29.6 in NNW 4.9 mph 15 mph 86% 0 in 81 W/m2
17:37 56.5 °F 52.3 °F 29.6 in WSW 4.9 mph 8 mph 86% 0 in 79 W/m2
17:42 56.5 °F 52 °F 29.6 in WNW 0.9 mph 3 mph 85% 0 in 69 W/m2
17:47 56.7 °F 52.2 °F 29.6 in WNW 2.9 mph 10 mph 85% 0 in 79 W/m2
17:52 56.7 °F 52.2 °F 29.6 in SW 2 mph 4 mph 85% 0 in 40 W/m2
17:57 56.7 °F 51.6 °F 29.6 in West 6 mph 7 mph 83% 0 in 42 W/m2
18:02 56.7 °F 51.6 °F 29.6 in SW 2 mph 5 mph 83% 0 in 70 W/m2
18:07 56.7 °F 51.6 °F 29.6 in SW 0.9 mph 5 mph 83% 0 in 49 W/m2
18:12 56.7 °F 51.6 °F 29.6 in South 0.9 mph 3 mph 83% 0 in 40 W/m2
18:17 56.5 °F 51.4 °F 29.6 in WSW 0.9 mph 4 mph 83% 0 in 25 W/m2
18:22 56.5 °F 51.4 °F 29.6 in Calm   4 mph 83% 0 in 18 W/m2
18:27 56.1 °F 51.4 °F 29.6 in West 0.9 mph 6 mph 84% 0 in 14 W/m2
18:32 55.9 °F 51.3 °F 29.6 in Calm   2 mph 84% 0 in 11 W/m2
18:37 55.8 °F 51.3 °F 29.6 in West 2.9 mph 4 mph 85% 0 in 9 W/m2
18:42 55.8 °F 51.3 °F 29.6 in Calm   6 mph 85% 0 in 5 W/m2
18:47 55.6 °F 51.4 °F 29.6 in Calm   4 mph 86% 0 in 0 W/m2
18:52 55.4 °F 51.6 °F 29.6 in SW 2 mph 5 mph 87% 0 in 0 W/m2
18:57 55.2 °F 51.4 °F 29.6 in NNW 2 mph 4 mph 87% 0.01 in 0 W/m2
19:02 55.2 °F 51.4 °F 29.6 in South 2.9 mph 8 mph 87% 0.02 in 0 W/m2
19:07 55 °F 51.3 °F 29.6 in WSW 2 mph 8 mph 87% 0.02 in 0 W/m2
19:12 54.9 °F 51.1 °F 29.6 in NW 4.9 mph 7 mph 87% 0.02 in 0 W/m2
19:17 54.9 °F 51.1 °F 29.6 in West 4 mph 9 mph 87% 0.02 in 0 W/m2
19:22 54.7 °F 50.9 °F 29.6 in NE 0.9 mph 6 mph 87% 0.02 in 0 W/m2
19:27 54.5 °F 50.7 °F 29.6 in NW 0.9 mph 9 mph 87% 0.02 in 0 W/m2
19:32 54.5 °F 51.1 °F 29.6 in WSW 4 mph 9 mph 88% 0.02 in 0 W/m2
19:37 54.3 °F 50.9 °F 29.6 in SSW 2 mph 9 mph 88% 0.02 in 0 W/m2
19:42 54.3 °F 50.9 °F 29.6 in NW 0.9 mph 7 mph 88% 0.02 in 0 W/m2
19:47 54.3 °F 50.9 °F 29.6 in WNW 8.9 mph 13 mph 88% 0.02 in 0 W/m2
19:52 54.3 °F 50.9 °F 29.6 in WNW 8.1 mph 13 mph 88% 0.02 in 0 W/m2
19:57 54.1 °F 50.7 °F 29.6 in WNW 4 mph 10 mph 88% 0.01 in 0 W/m2
20:02 54 °F 50.5 °F 29.6 in West 2 mph 9 mph 88% 0 in 0 W/m2
20:07 54 °F 50.7 °F 29.6 in WNW 6.9 mph 10 mph 89% 0 in 0 W/m2
20:12 53.8 °F 50.5 °F 29.6 in WNW 8.9 mph 14 mph 89% 0 in 0 W/m2
20:17 53.8 °F 50.5 °F 29.6 in NW 4 mph 7 mph 89% 0 in 0 W/m2
20:22 53.8 °F 50.5 °F 29.6 in WNW 2.9 mph 5 mph 89% 0 in 0 W/m2
20:27 53.6 °F 50.7 °F 29.6 in WSW 10.1 mph 10 mph 90% 0 in 0 W/m2
20:32 53.4 °F 50.2 °F 29.6 in SW 4 mph 11 mph 89% 0 in 0 W/m2
20:37 53.6 °F 50.4 °F 29.6 in NNW 4.9 mph 9 mph 89% 0 in 0 W/m2
20:42 53.4 °F 50.2 °F 29.7 in NW 2.9 mph 8 mph 89% 0 in 0 W/m2
20:47 53.4 °F 50.2 °F 29.7 in WNW 6.9 mph 10 mph 89% 0 in 0 W/m2
20:52 53.4 °F 50.2 °F 29.7 in NW 2 mph 2 mph 89% 0 in 0 W/m2
20:57 53.4 °F 50.5 °F 29.7 in North 0.9 mph 3 mph 90% 0 in 0 W/m2
21:02 53.2 °F 50.4 °F 29.7 in WSW 2 mph 5 mph 90% 0 in 0 W/m2
21:07 53.1 °F 50.2 °F 29.7 in Calm   3 mph 90% 0 in 0 W/m2
21:12 53.1 °F 50.5 °F 29.7 in Calm   2 mph 91% 0 in 0 W/m2
21:17 53.1 °F 50.5 °F 29.7 in South 0.9 mph 2 mph 91% 0 in 0 W/m2
21:22 53.2 °F 50.7 °F 29.7 in South 0.9 mph 4 mph 91% 0 in 0 W/m2
21:27 53.2 °F 50.7 °F 29.7 in WNW 2.9 mph 12 mph 91% 0 in 0 W/m2
21:32 53.2 °F 50.7 °F 29.7 in North 2 mph 3 mph 91% 0 in 0 W/m2
21:37 53.2 °F 50.7 °F 29.7 in NNE 4 mph 5 mph 91% 0 in 0 W/m2
21:42 53.2 °F 50.7 °F 29.7 in Calm   2 mph 91% 0 in 0 W/m2
21:47 53.2 °F 50.4 °F 29.7 in South 0.9 mph 6 mph 90% 0 in 0 W/m2
21:52 53.4 °F 50.5 °F 29.7 in NW 4 mph 5 mph 90% 0 in 0 W/m2
21:57 53.4 °F 50.5 °F 29.7 in Calm   2 mph 90% 0 in 0 W/m2
22:02 53.4 °F 50.5 °F 29.7 in West 4 mph 4 mph 90% 0 in 0 W/m2
22:07 53.4 °F 50.2 °F 29.7 in WNW 4 mph 12 mph 89% 0 in 0 W/m2
22:12 53.6 °F 50.4 °F 29.7 in NW 2.9 mph 12 mph 89% 0 in 0 W/m2
22:17 53.4 °F 50.2 °F 29.7 in West 2.9 mph 8 mph 89% 0 in 0 W/m2
22:22 53.4 °F 50.2 °F 29.7 in North 4 mph 8 mph 89% 0 in 0 W/m2
22:27 53.4 °F 50 °F 29.7 in WSW 2.9 mph 8 mph 88% 0 in 0 W/m2
22:32 53.4 °F 50.2 °F 29.7 in SW 4 mph 8 mph 89% 0 in 0 W/m2
22:37 53.2 °F 50 °F 29.7 in WSW 2 mph 9 mph 89% 0 in 0 W/m2
22:42 53.2 °F 50 °F 29.7 in West 6 mph 6 mph 89% 0 in 0 W/m2
22:47 53.2 °F 50 °F 29.7 in North 2 mph 11 mph 89% 0 in 0 W/m2
22:52 53.2 °F 50 °F 29.7 in WNW 2.9 mph 6 mph 89% 0 in 0 W/m2
22:57 53.2 °F 50 °F 29.7 in West 6 mph 6 mph 89% 0.01 in 0 W/m2
23:02 53.1 °F 49.8 °F 29.7 in NW 10.1 mph 10 mph 89% 0.01 in 0 W/m2
23:07 53.1 °F 49.8 °F 29.7 in West 0.9 mph 8 mph 89% 0.01 in 0 W/m2
23:12 52.9 °F 50 °F 29.7 in West 4 mph 6 mph 90% 0.01 in 0 W/m2
23:17 52.9 °F 50 °F 29.7 in WNW 2.9 mph 5 mph 90% 0.01 in 0 W/m2
23:23 52.9 °F 50 °F 29.7 in WNW 10.1 mph 10 mph 90% 0.01 in 0 W/m2
23:28 52.7 °F 49.8 °F 29.7 in WSW 2.9 mph 8 mph 90% 0.01 in 0 W/m2
23:33 52.7 °F 49.8 °F 29.7 in NW 4 mph 9 mph 90% 0.02 in 0 W/m2
23:38 52.5 °F 49.6 °F 29.7 in West 2 mph 4 mph 90% 0.02 in 0 W/m2
23:43 52.7 °F 49.8 °F 29.7 in NNW 2 mph 6 mph 90% 0.02 in 0 W/m2
23:48 52.7 °F 49.8 °F 29.7 in North 2 mph 3 mph 90% 0.02 in 0 W/m2
23:53 52.7 °F 50.2 °F 29.7 in NW 4 mph 5 mph 91% 0.02 in 0 W/m2
23:58 52.7 °F 49.8 °F 29.7 in WNW 2 mph 10 mph 90% 0.01 in 0 W/m2
Juneau County Weather
Compliments of Weather Underground - 4 mb